Time;durP1;ratioP1;P1;durP2;ratioP2;P2;SDS_P1;SDS_P2;PMS_P1;PMS_P2;Temp;Humidity;BMP_temperature;BMP_pressure;BME280_temperature;BME280_humidity;BME280_pressure;Samples;Min_cycle;Max_cycle;Signal;HPM_P1;HPM_P2
2022/04/06 00:00:58;;;;;;;3.72;2.50;;;8.70;99.90;;;;;;609853;235;26889;-62
2022/04/06 00:03:25;;;;;;;4.62;2.42;;;8.80;99.90;;;;;;609880;236;26589;-61
2022/04/06 00:05:53;;;;;;;2.90;2.70;;;8.80;99.90;;;;;;609878;236;26971;-61
2022/04/06 00:08:20;;;;;;;3.90;3.50;;;8.80;99.90;;;;;;609809;236;26601;-61
2022/04/06 00:10:47;;;;;;;4.18;2.60;;;8.80;99.90;;;;;;609899;236;27290;-61
2022/04/06 00:13:15;;;;;;;2.50;2.12;;;8.90;99.90;;;;;;610384;233;26628;-60
2022/04/06 00:15:43;;;;;;;4.60;2.40;;;8.90;99.90;;;;;;611205;235;26616;-61
2022/04/06 00:18:10;;;;;;;5.55;3.37;;;8.90;99.90;;;;;;610914;235;26631;-61
2022/04/06 00:20:37;;;;;;;3.67;3.37;;;8.90;99.90;;;;;;610767;235;26567;-61
2022/04/06 00:23:05;;;;;;;3.10;2.90;;;8.90;99.90;;;;;;610546;235;26802;-61
2022/04/06 00:25:32;;;;;;;3.62;2.78;;;8.90;99.90;;;;;;610400;235;26600;-60
2022/04/06 00:27:59;;;;;;;2.80;2.28;;;9.00;99.90;;;;;;610343;236;27384;-61
2022/04/06 00:30:27;;;;;;;3.67;3.37;;;8.90;99.90;;;;;;610343;235;26585;-61
2022/04/06 00:32:55;;;;;;;2.33;2.12;;;8.90;99.90;;;;;;609965;236;26648;-61
2022/04/06 00:37:55;;;;;;;2.25;2.05;;;8.90;99.90;;;;;;610092;236;27258;-61
2022/04/06 00:40:23;;;;;;;2.78;2.58;;;8.90;99.90;;;;;;610131;236;26595;-61
2022/04/06 00:42:51;;;;;;;3.15;2.28;;;9.00;99.90;;;;;;610130;236;26640;-61
2022/04/06 00:45:20;;;;;;;4.32;2.55;;;9.00;99.90;;;;;;610134;235;26597;-61
2022/04/06 00:47:48;;;;;;;2.87;2.53;;;9.00;99.90;;;;;;610185;235;26653;-60
2022/04/06 00:50:15;;;;;;;2.67;2.47;;;9.00;99.90;;;;;;609943;235;26797;-61
2022/04/06 00:52:43;;;;;;;2.45;2.25;;;9.00;99.90;;;;;;609854;236;26850;-61
2022/04/06 00:55:11;;;;;;;2.87;2.37;;;9.00;99.90;;;;;;609782;235;26589;-62
2022/04/06 00:57:38;;;;;;;2.97;2.10;;;9.00;99.90;;;;;;609836;235;26808;-61
2022/04/06 01:00:06;;;;;;;2.97;2.78;;;9.00;99.90;;;;;;609828;235;26582;-61
2022/04/06 01:02:34;;;;;;;3.60;2.95;;;9.00;99.90;;;;;;609877;236;26604;-62
2022/04/06 01:05:01;;;;;;;2.92;2.72;;;9.00;99.90;;;;;;609891;236;26843;-61
2022/04/06 01:07:28;;;;;;;3.33;3.03;;;9.10;99.90;;;;;;609808;236;26605;-61
2022/04/06 01:09:55;;;;;;;3.80;3.50;;;9.10;99.90;;;;;;609900;235;26873;-61
2022/04/06 01:12:23;;;;;;;3.15;2.85;;;9.10;99.90;;;;;;609887;236;26581;-61
2022/04/06 01:14:50;;;;;;;2.30;2.20;;;9.10;99.90;;;;;;609816;235;26581;-60
2022/04/06 01:17:18;;;;;;;2.40;2.05;;;9.00;99.90;;;;;;609860;236;26869;-59
2022/04/06 01:19:50;;;;;;;2.37;2.15;;;9.00;99.90;;;;;;609886;236;26611;-60
2022/04/06 01:22:16;;;;;;;3.10;2.20;;;9.00;99.90;;;;;;609832;236;27257;-61
2022/04/06 01:24:43;;;;;;;2.92;2.72;;;9.00;99.90;;;;;;610235;233;26571;-60
2022/04/06 01:27:10;;;;;;;3.03;2.80;;;9.00;99.90;;;;;;611241;235;26894;-61
2022/04/06 01:29:37;;;;;;;2.10;1.80;;;9.00;99.90;;;;;;611213;235;26624;-60
2022/04/06 01:32:09;;;;;;;2.05;1.90;;;9.00;99.90;;;;;;611129;235;26582;-61
2022/04/06 01:34:37;;;;;;;2.37;2.17;;;9.00;99.90;;;;;;610786;235;26576;-62
2022/04/06 01:37:05;;;;;;;2.75;2.25;;;9.00;99.90;;;;;;610281;236;26595;-61
2022/04/06 01:39:33;;;;;;;2.60;2.40;;;9.00;99.90;;;;;;610310;235;26604;-61
2022/04/06 01:42:01;;;;;;;2.80;2.60;;;9.10;99.90;;;;;;610262;235;26838;-61
2022/04/06 01:44:27;;;;;;;2.45;1.90;;;9.10;99.90;;;;;;609938;236;26654;-61
2022/04/06 01:46:54;;;;;;;2.90;2.70;;;9.10;99.90;;;;;;609954;236;26851;-61
2022/04/06 01:54:27;;;;;;;3.05;2.78;;;9.10;99.90;;;;;;610183;236;26653;-61
2022/04/06 01:56:54;;;;;;;3.28;2.20;;;9.10;99.90;;;;;;610158;236;26874;-61
2022/04/06 01:59:21;;;;;;;2.67;2.20;;;9.10;99.90;;;;;;610156;236;26640;-60
2022/04/06 02:01:49;;;;;;;3.55;3.00;;;9.10;99.90;;;;;;609968;235;26856;-60
2022/04/06 02:04:17;;;;;;;2.87;2.72;;;9.10;99.90;;;;;;609702;235;26598;-61
2022/04/06 02:06:45;;;;;;;2.15;1.98;;;9.10;99.90;;;;;;609827;231;26612;-61
2022/04/06 02:09:13;;;;;;;7.82;2.47;;;9.10;99.90;;;;;;609821;236;26948;-62
2022/04/06 02:11:41;;;;;;;4.32;2.67;;;9.10;99.90;;;;;;609892;236;26946;-61
2022/04/06 02:14:07;;;;;;;2.90;2.70;;;9.10;99.90;;;;;;609759;236;26614;-61
2022/04/06 02:16:35;;;;;;;3.30;1.85;;;9.10;99.90;;;;;;604796;233;26844;-60
2022/04/06 02:19:02;;;;;;;5.85;2.40;;;9.10;99.90;;;;;;604562;237;26590;-61
2022/04/06 02:21:31;;;;;;;3.42;2.30;;;9.10;99.90;;;;;;604611;237;26587;-61
2022/04/06 02:23:58;;;;;;;4.03;2.10;;;9.10;99.90;;;;;;604508;238;26602;-61
2022/04/06 02:26:27;;;;;;;4.75;2.83;;;9.10;99.90;;;;;;604644;234;26571;-61
2022/04/06 02:28:53;;;;;;;2.55;2.00;;;9.10;99.90;;;;;;604607;237;26812;-61
2022/04/06 02:31:22;;;;;;;4.80;2.62;;;9.10;99.90;;;;;;604654;238;26587;-61
2022/04/06 02:33:49;;;;;;;6.07;2.50;;;9.10;99.90;;;;;;604534;238;26605;-61
2022/04/06 02:36:17;;;;;;;3.20;2.75;;;9.10;99.90;;;;;;604974;235;26848;-61
2022/04/06 02:38:43;;;;;;;1.85;1.70;;;9.10;99.90;;;;;;606009;236;26570;-61
2022/04/06 02:41:10;;;;;;;2.75;2.55;;;9.10;99.90;;;;;;605555;237;26908;-61
2022/04/06 02:43:38;;;;;;;2.75;2.47;;;9.00;99.90;;;;;;605430;236;26578;-61
2022/04/06 02:46:06;;;;;;;4.40;2.37;;;9.10;99.90;;;;;;605233;237;26628;-61
2022/04/06 02:48:33;;;;;;;2.47;2.28;;;9.10;99.90;;;;;;605196;237;26638;-61
2022/04/06 02:51:00;;;;;;;5.03;2.37;;;9.00;99.90;;;;;;605145;237;26858;-61
2022/04/06 02:53:27;;;;;;;2.22;2.03;;;9.10;99.90;;;;;;605209;238;26630;-61
2022/04/06 02:55:54;;;;;;;2.55;1.85;;;9.10;99.90;;;;;;604919;238;26877;-61
2022/04/06 02:58:22;;;;;;;3.20;2.17;;;9.10;99.90;;;;;;604899;238;26596;-61
2022/04/06 03:00:50;;;;;;;2.97;2.30;;;9.10;99.90;;;;;;604841;238;26581;-60
2022/04/06 03:03:17;;;;;;;3.60;2.05;;;9.10;99.90;;;;;;604892;238;26579;-60
2022/04/06 03:05:45;;;;;;;2.22;1.95;;;9.20;99.90;;;;;;604882;234;26598;-62
2022/04/06 03:08:12;;;;;;;2.87;2.47;;;9.10;99.90;;;;;;604887;238;26820;-62
2022/04/06 03:10:40;;;;;;;2.35;2.17;;;9.20;99.90;;;;;;604858;238;26593;-62
2022/04/06 03:13:08;;;;;;;2.95;2.70;;;9.10;99.90;;;;;;604733;237;26573;-61
2022/04/06 03:15:35;;;;;;;2.95;2.05;;;9.10;99.90;;;;;;604561;237;27269;-61
2022/04/06 03:18:02;;;;;;;2.75;2.40;;;9.10;99.90;;;;;;604598;238;26582;-62
2022/04/06 03:20:29;;;;;;;3.58;3.28;;;9.10;99.90;;;;;;604482;237;26902;-62
2022/04/06 03:22:57;;;;;;;3.80;3.42;;;9.10;99.90;;;;;;604629;233;26542;-61
2022/04/06 03:25:24;;;;;;;2.62;2.42;;;9.10;99.90;;;;;;604518;237;26638;-61
2022/04/06 03:27:52;;;;;;;2.33;2.08;;;9.10;99.90;;;;;;604587;233;26586;-61
2022/04/06 03:30:19;;;;;;;3.28;2.42;;;9.10;99.90;;;;;;604580;237;26554;-61
2022/04/06 03:32:46;;;;;;;3.35;3.15;;;9.20;99.90;;;;;;604577;238;26598;-62
2022/04/06 03:35:13;;;;;;;2.22;1.90;;;9.20;99.90;;;;;;604638;238;26777;-62
2022/04/06 03:37:41;;;;;;;1.77;1.67;;;9.20;99.90;;;;;;604619;237;26590;-62
2022/04/06 03:40:09;;;;;;;3.78;2.92;;;9.20;99.90;;;;;;602872;237;27347;-63
2022/04/06 03:42:36;;;;;;;2.60;2.45;;;9.10;99.90;;;;;;604602;238;26558;-62
2022/04/06 03:45:04;;;;;;;3.33;3.03;;;9.10;99.90;;;;;;604561;237;26829;-63
2022/04/06 03:47:31;;;;;;;3.80;1.95;;;9.10;99.90;;;;;;604681;236;26591;-63
2022/04/06 03:49:59;;;;;;;3.00;2.22;;;9.10;99.90;;;;;;606189;236;26828;-63
2022/04/06 03:52:27;;;;;;;4.55;1.85;;;9.10;99.90;;;;;;605647;236;26594;-63
2022/04/06 03:54:55;;;;;;;3.15;2.85;;;9.10;99.90;;;;;;605422;236;26554;-60
2022/04/06 03:57:22;;;;;;;2.85;2.15;;;9.10;99.90;;;;;;605303;237;26610;-60
2022/04/06 03:59:49;;;;;;;2.03;1.70;;;9.10;99.90;;;;;;605216;237;26651;-60
2022/04/06 04:02:16;;;;;;;2.12;1.90;;;9.10;99.90;;;;;;605134;237;26593;-62
2022/04/06 04:04:43;;;;;;;2.03;1.83;;;9.10;99.90;;;;;;605185;237;26649;-62
2022/04/06 04:07:11;;;;;;;2.30;2.17;;;9.00;99.90;;;;;;604960;237;26642;-62
2022/04/06 04:09:39;;;;;;;2.00;1.90;;;9.00;99.90;;;;;;604866;238;26610;-62
2022/04/06 04:12:07;;;;;;;2.78;1.58;;;9.00;99.90;;;;;;604920;238;26796;-62
2022/04/06 04:14:35;;;;;;;3.47;1.60;;;9.00;99.90;;;;;;604923;237;26637;-62
2022/04/06 04:17:02;;;;;;;2.72;2.35;;;9.00;99.90;;;;;;604821;238;26864;-62
2022/04/06 04:19:29;;;;;;;3.72;2.78;;;9.00;99.90;;;;;;604925;237;26591;-62
2022/04/06 04:21:56;;;;;;;2.70;2.35;;;9.00;99.90;;;;;;604866;237;26579;-62
2022/04/06 04:24:24;;;;;;;3.40;1.73;;;9.00;99.90;;;;;;604703;237;26587;-62
2022/04/06 04:26:51;;;;;;;2.28;2.08;;;9.00;99.90;;;;;;604594;234;26618;-60
2022/04/06 04:29:19;;;;;;;2.80;2.60;;;9.00;99.90;;;;;;604630;237;26573;-62
2022/04/06 04:31:46;;;;;;;1.77;1.58;;;9.00;99.90;;;;;;604563;238;26848;-63
2022/04/06 04:34:13;;;;;;;3.03;2.72;;;9.00;99.90;;;;;;604547;237;26582;-62
2022/04/06 04:36:40;;;;;;;3.97;3.67;;;9.00;99.90;;;;;;604603;237;26844;-62
2022/04/06 04:39:08;;;;;;;2.08;1.92;;;9.00;99.90;;;;;;604560;238;26583;-61
2022/04/06 04:41:36;;;;;;;3.33;3.10;;;9.00;99.90;;;;;;604548;238;26586;-62
2022/04/06 04:44:04;;;;;;;1.90;1.80;;;9.00;99.90;;;;;;604571;237;26615;-62
2022/04/06 04:46:31;;;;;;;3.05;2.75;;;8.90;99.90;;;;;;604617;234;26884;-62
2022/04/06 04:48:59;;;;;;;2.47;2.28;;;9.00;99.90;;;;;;604594;238;26602;-61
2022/04/06 04:51:28;;;;;;;2.30;2.20;;;9.00;99.90;;;;;;604561;237;26602;-61
2022/04/06 04:53:54;;;;;;;3.53;3.30;;;9.00;99.90;;;;;;604588;237;26815;-64
2022/04/06 04:56:22;;;;;;;2.55;2.22;;;9.00;99.90;;;;;;604625;237;26591;-63
2022/04/06 04:58:48;;;;;;;2.50;1.87;;;9.00;99.90;;;;;;604563;238;26828;-62
2022/04/06 05:01:16;;;;;;;3.80;2.78;;;8.90;99.90;;;;;;606145;236;26586;-62
2022/04/06 05:03:43;;;;;;;2.45;2.12;;;9.00;99.90;;;;;;605665;237;26636;-61
2022/04/06 05:06:11;;;;;;;2.00;1.90;;;8.90;99.90;;;;;;605409;236;26639;-62
2022/04/06 05:08:39;;;;;;;2.72;2.40;;;9.00;99.90;;;;;;605334;236;26605;-62
2022/04/06 05:11:06;;;;;;;2.62;1.83;;;9.00;99.90;;;;;;605199;237;26862;-62
2022/04/06 05:13:33;;;;;;;2.15;1.95;;;9.00;99.90;;;;;;605216;238;26664;-62
2022/04/06 05:16:00;;;;;;;4.55;2.20;;;9.00;99.90;;;;;;605099;237;27373;-61
2022/04/06 05:18:29;;;;;;;2.12;2.00;;;9.00;99.90;;;;;;604863;237;26582;-62
2022/04/06 05:20:55;;;;;;;2.45;1.67;;;9.00;99.90;;;;;;604815;238;26850;-61
2022/04/06 05:23:23;;;;;;;2.25;2.00;;;9.00;99.90;;;;;;604892;238;26555;-61
2022/04/06 05:25:50;;;;;;;3.35;1.60;;;9.00;99.90;;;;;;604823;237;26602;-61
2022/04/06 05:28:18;;;;;;;2.30;2.15;;;9.00;99.90;;;;;;604937;237;26574;-62
2022/04/06 05:30:46;;;;;;;1.98;1.83;;;9.00;99.90;;;;;;604853;232;26824;-61
2022/04/06 05:33:11;;;;;;;2.85;1.80;;;9.10;99.90;;;;;;604745;238;26618;-62
2022/04/06 05:35:39;;;;;;;3.85;2.15;;;9.10;99.90;;;;;;604764;237;26630;-62
2022/04/06 05:38:07;;;;;;;5.47;2.00;;;9.20;99.90;;;;;;604603;238;26627;-62
2022/04/06 05:40:34;;;;;;;1.95;1.70;;;9.20;99.90;;;;;;604593;238;26587;-63
2022/04/06 05:43:01;;;;;;;2.12;1.92;;;9.30;99.90;;;;;;604591;237;26602;-63
2022/04/06 05:45:29;;;;;;;2.20;1.83;;;9.40;99.90;;;;;;604538;237;26975;-62
2022/04/06 05:47:57;;;;;;;2.75;1.70;;;9.50;99.90;;;;;;604615;238;26584;-62
2022/04/06 05:50:24;;;;;;;2.35;1.87;;;9.50;99.90;;;;;;604586;237;26804;-62
2022/04/06 05:52:51;;;;;;;2.58;2.37;;;9.50;99.90;;;;;;604573;237;26600;-61
2022/04/06 05:55:19;;;;;;;2.65;2.00;;;9.50;99.90;;;;;;604556;234;26587;-63
2022/04/06 05:57:47;;;;;;;1.90;1.80;;;9.50;99.90;;;;;;604573;238;26586;-62
2022/04/06 06:00:15;;;;;;;2.65;1.90;;;9.50;99.90;;;;;;604578;237;26819;-62
2022/04/06 06:02:43;;;;;;;2.75;1.83;;;9.60;99.90;;;;;;604654;238;26582;-63
2022/04/06 06:05:09;;;;;;;2.20;1.87;;;9.50;99.90;;;;;;604577;234;27244;-62
2022/04/06 06:07:37;;;;;;;1.75;1.50;;;9.50;99.90;;;;;;604610;238;26582;-62
2022/04/06 06:10:04;;;;;;;2.40;1.58;;;9.50;99.90;;;;;;604624;238;26586;-62
2022/04/06 06:12:32;;;;;;;3.60;1.90;;;9.60;99.90;;;;;;605966;235;26577;-61
2022/04/06 06:15:00;;;;;;;3.10;1.60;;;9.70;99.90;;;;;;605718;236;26884;-61
2022/04/06 06:17:27;;;;;;;1.87;1.60;;;9.70;99.90;;;;;;605430;236;26603;-61
2022/04/06 06:19:55;;;;;;;3.25;1.60;;;9.70;99.90;;;;;;605383;236;26589;-62
2022/04/06 06:22:22;;;;;;;17.05;2.22;;;9.70;99.90;;;;;;605151;237;26674;-62
2022/04/06 06:24:49;;;;;;;5.07;2.47;;;9.60;99.90;;;;;;605082;232;26673;-62
2022/04/06 06:27:19;;;;;;;5.65;1.83;;;9.60;99.90;;;;;;605126;238;26897;-62
2022/04/06 06:29:45;;;;;;;6.62;2.53;;;9.60;99.90;;;;;;604986;238;27305;-61
2022/04/06 06:32:12;;;;;;;2.15;1.62;;;9.50;99.90;;;;;;604829;237;26861;-62
2022/04/06 06:34:39;;;;;;;2.87;1.73;;;9.60;99.90;;;;;;604860;237;26591;-62
2022/04/06 06:37:07;;;;;;;4.57;1.60;;;9.70;99.90;;;;;;604837;238;27135;-62
2022/04/06 06:39:34;;;;;;;2.08;1.87;;;10.00;99.90;;;;;;604857;238;26586;-62
2022/04/06 06:42:02;;;;;;;6.03;2.33;;;10.00;99.90;;;;;;604862;238;26587;-64
2022/04/06 06:44:30;;;;;;;1.67;1.40;;;10.00;99.90;;;;;;604825;237;26599;-60
2022/04/06 06:46:57;;;;;;;4.95;2.58;;;10.10;99.90;;;;;;604795;234;26864;-62
2022/04/06 06:49:25;;;;;;;3.50;2.03;;;10.20;99.90;;;;;;604637;237;26583;-63
2022/04/06 06:51:53;;;;;;;2.15;1.92;;;10.20;99.90;;;;;;604572;238;26579;-62
2022/04/06 06:54:21;;;;;;;3.72;2.83;;;10.20;99.90;;;;;;604569;237;26581;-61
2022/04/06 06:56:49;;;;;;;2.87;1.75;;;10.20;99.90;;;;;;604611;237;26641;-62
2022/04/06 06:59:16;;;;;;;3.67;2.42;;;10.20;99.90;;;;;;604573;237;26783;-62
2022/04/06 07:01:43;;;;;;;4.35;2.53;;;10.30;99.90;;;;;;604607;238;26598;-62
2022/04/06 07:04:11;;;;;;;5.10;2.53;;;10.30;99.90;;;;;;604589;238;27247;-62
2022/04/06 07:06:38;;;;;;;4.00;2.53;;;10.30;99.90;;;;;;604589;234;26987;-61
2022/04/06 07:09:05;;;;;;;3.78;2.70;;;10.30;99.90;;;;;;604558;237;26594;-61
2022/04/06 07:11:33;;;;;;;5.50;2.65;;;10.30;99.90;;;;;;604620;237;26906;-61
2022/04/06 07:14:00;;;;;;;3.87;2.30;;;10.30;99.90;;;;;;604538;237;26579;-61
2022/04/06 07:16:27;;;;;;;3.85;2.80;;;10.40;99.90;;;;;;604580;238;26849;-62
2022/04/06 07:18:55;;;;;;;4.00;2.42;;;10.50;99.90;;;;;;604579;237;26591;-62
2022/04/06 07:21:23;;;;;;;4.47;2.72;;;10.60;99.90;;;;;;604293;236;26583;-62
2022/04/06 07:23:53;;;;;;;3.22;2.90;;;10.60;99.90;;;;;;607043;234;26650;-62
2022/04/06 07:26:19;;;;;;;3.53;2.47;;;10.60;99.90;;;;;;604774;235;26671;-61
2022/04/06 07:28:47;;;;;;;3.45;2.55;;;10.70;99.90;;;;;;606561;234;26651;-61
2022/04/06 07:31:14;;;;;;;2.80;2.60;;;10.70;99.90;;;;;;606017;234;26591;-62
2022/04/06 07:33:41;;;;;;;2.40;2.20;;;10.80;99.90;;;;;;606671;235;26588;-62
2022/04/06 07:36:08;;;;;;;6.45;3.08;;;10.80;99.90;;;;;;604541;236;26848;-62
2022/04/06 07:38:36;;;;;;;3.45;3.10;;;10.90;99.90;;;;;;603557;236;26639;-61
2022/04/06 07:41:03;;;;;;;2.90;2.60;;;11.00;99.90;;;;;;603800;236;26827;-62
2022/04/06 07:43:31;;;;;;;3.28;3.00;;;11.20;99.90;;;;;;604188;236;26607;-62
2022/04/06 07:45:59;;;;;;;14.32;4.47;;;11.20;99.90;;;;;;604913;236;26613;-61
2022/04/06 07:48:27;;;;;;;10.05;4.47;;;11.30;99.90;;;;;;603421;236;26594;-61
2022/04/06 07:50:55;;;;;;;15.77;5.47;;;11.30;99.90;;;;;;603401;238;26590;-62
2022/04/06 07:53:23;;;;;;;19.25;5.18;;;11.40;99.90;;;;;;605584;235;26585;-63
2022/04/06 07:55:50;;;;;;;20.88;6.12;;;11.40;99.90;;;;;;605436;236;26617;-63
2022/04/06 07:58:19;;;;;;;18.65;5.53;;;11.50;99.90;;;;;;606942;235;26593;-63
2022/04/06 08:00:46;;;;;;;9.93;3.90;;;11.70;99.90;;;;;;605618;235;26618;-61
2022/04/06 08:03:14;;;;;;;33.60;6.55;;;11.70;99.90;;;;;;604447;233;26905;-63
2022/04/06 08:05:41;;;;;;;19.92;5.57;;;11.80;99.90;;;;;;604215;236;26660;-62
2022/04/06 08:08:08;;;;;;;74.82;13.32;;;12.10;99.90;;;;;;603292;236;26866;-63
2022/04/06 08:10:35;;;;;;;16.52;5.43;;;12.10;99.90;;;;;;606054;235;26632;-63
2022/04/06 08:13:03;;;;;;;1999.90;401.15;;;12.30;99.30;;;;;;604595;236;26622;-63
2022/04/06 08:15:31;;;;;;;1999.90;195.10;;;12.60;99.40;;;;;;603899;232;26629;-65
2022/04/06 08:17:58;;;;;;;61.80;16.73;;;12.60;99.40;;;;;;608662;235;26584;-65
2022/04/06 08:20:26;;;;;;;64.35;16.37;;;12.80;98.50;;;;;;603392;236;26837;-65
2022/04/06 08:22:53;;;;;;;62.03;17.27;;;12.80;98.30;;;;;;604184;236;26651;-65
2022/04/06 08:25:20;;;;;;;77.55;19.05;;;12.80;98.10;;;;;;604393;236;27296;-65
2022/04/06 08:27:47;;;;;;;59.90;19.08;;;12.90;97.80;;;;;;604023;236;26637;-66
2022/04/06 08:30:16;;;;;;;13.05;7.15;;;13.00;97.30;;;;;;603728;236;26843;-64
2022/04/06 08:32:42;;;;;;;31.92;11.43;;;13.00;97.10;;;;;;602930;236;26644;-64
2022/04/06 08:35:09;;;;;;;41.35;13.55;;;12.80;96.60;;;;;;604677;236;26602;-64
2022/04/06 08:37:38;;;;;;;39.42;13.13;;;12.70;96.80;;;;;;605810;235;26612;-65
2022/04/06 08:40:07;;;;;;;25.40;9.07;;;12.70;97.00;;;;;;606735;235;26618;-64
2022/04/06 08:42:34;;;;;;;21.98;8.40;;;12.50;96.90;;;;;;606578;234;26591;-65
2022/04/06 08:45:01;;;;;;;20.20;9.40;;;12.50;97.00;;;;;;605550;236;26843;-65
2022/04/06 08:47:31;;;;;;;15.90;7.07;;;12.40;97.60;;;;;;604567;235;26634;-61
2022/04/06 08:49:58;;;;;;;22.80;7.35;;;12.10;97.20;;;;;;609103;234;26575;-62
2022/04/06 08:52:26;;;;;;;8.50;5.15;;;12.00;97.40;;;;;;603463;236;26550;-62
2022/04/06 08:54:53;;;;;;;20.23;7.55;;;12.00;97.30;;;;;;603450;237;26854;-62
2022/04/06 08:57:20;;;;;;;8.18;4.47;;;12.00;97.10;;;;;;603399;237;26624;-62
2022/04/06 08:59:49;;;;;;;19.60;5.85;;;12.20;97.50;;;;;;605640;235;26794;-61
2022/04/06 09:02:17;;;;;;;5.55;3.37;;;12.20;97.20;;;;;;604596;234;26777;-60
2022/04/06 09:04:44;;;;;;;13.07;4.65;;;12.20;96.50;;;;;;606664;233;26944;-64
2022/04/06 09:07:12;;;;;;;12.60;4.68;;;12.30;96.30;;;;;;605786;236;26601;-64
2022/04/06 09:09:38;;;;;;;13.60;4.72;;;12.40;96.10;;;;;;602842;236;26812;-64
2022/04/06 09:12:07;;;;;;;7.62;4.30;;;12.50;95.70;;;;;;603999;236;26589;-63
2022/04/06 09:14:34;;;;;;;11.45;4.50;;;12.80;95.30;;;;;;605447;235;26625;-64
2022/04/06 09:17:02;;;;;;;9.02;4.00;;;12.80;94.50;;;;;;603438;234;26825;-64
2022/04/06 09:19:30;;;;;;;8.00;4.35;;;13.00;94.10;;;;;;602907;236;27029;-65
2022/04/06 09:21:57;;;;;;;12.80;4.18;;;12.90;94.10;;;;;;602585;238;26886;-65
2022/04/06 09:24:25;;;;;;;9.35;4.20;;;12.90;93.80;;;;;;605922;233;26660;-65
2022/04/06 09:26:59;;;;;;;10.00;4.55;;;13.00;93.80;;;;;;603311;236;27318;-65
2022/04/06 09:29:26;;;;;;;14.63;4.62;;;13.20;93.60;;;;;;604464;236;26853;-63
2022/04/06 09:31:54;;;;;;;2.62;2.42;;;13.40;93.60;;;;;;604175;236;26644;-65
2022/04/06 09:34:21;;;;;;;12.77;4.35;;;13.50;93.30;;;;;;604321;236;26557;-67
2022/04/06 09:36:56;;;;;;;14.93;4.87;;;13.50;93.00;;;;;;604588;237;26615;-64
2022/04/06 09:39:19;;;;;;;10.35;4.45;;;13.50;92.80;;;;;;604527;237;26594;-65
2022/04/06 09:41:57;;;;;;;10.90;3.85;;;13.30;92.80;;;;;;604568;237;26578;-64
2022/04/06 09:49:42;;;;;;;10.60;4.28;;;12.90;92.80;;;;;;605882;236;26821;-64
2022/04/06 09:52:09;;;;;;;9.98;3.90;;;12.70;92.70;;;;;;605501;236;26595;-64
2022/04/06 09:54:37;;;;;;;4.90;3.85;;;12.70;92.80;;;;;;605417;237;26845;-65
2022/04/06 09:57:04;;;;;;;5.55;3.30;;;12.80;93.20;;;;;;605053;238;26653;-64
2022/04/06 09:59:31;;;;;;;8.63;3.72;;;12.70;92.80;;;;;;605097;238;27324;-65
2022/04/06 10:02:00;;;;;;;8.60;3.55;;;12.80;92.50;;;;;;605228;237;26622;-64
2022/04/06 10:04:27;;;;;;;6.62;3.55;;;12.70;92.40;;;;;;605039;238;26581;-65
2022/04/06 10:06:55;;;;;;;7.45;3.37;;;13.00;92.30;;;;;;604835;237;26614;-64
2022/04/06 10:09:23;;;;;;;7.37;3.50;;;13.40;92.20;;;;;;604857;237;26622;-65
2022/04/06 10:11:51;;;;;;;4.70;3.33;;;13.30;92.10;;;;;;604897;237;26837;-64
2022/04/06 10:14:18;;;;;;;8.23;3.35;;;13.30;91.80;;;;;;604795;238;26586;-64
2022/04/06 10:16:46;;;;;;;7.07;3.45;;;13.40;91.70;;;;;;604903;238;27210;-65
2022/04/06 10:19:13;;;;;;;7.97;3.40;;;13.70;91.50;;;;;;604800;238;26582;-64
2022/04/06 10:21:55;;;;;;;6.35;3.35;;;13.80;91.30;;;;;;604770;237;26611;-63
2022/04/06 10:24:34;;;;;;;5.25;3.45;;;13.60;91.50;;;;;;604746;238;26903;-64
2022/04/06 10:27:05;;;;;;;10.07;3.12;;;13.50;91.50;;;;;;604250;238;26586;-64
2022/04/06 10:29:33;;;;;;;4.37;3.33;;;13.30;92.00;;;;;;604495;235;26805;-64
2022/04/06 10:32:00;;;;;;;5.28;4.15;;;12.80;92.10;;;;;;604967;237;26556;-64
2022/04/06 10:34:31;;;;;;;7.62;3.58;;;12.80;92.70;;;;;;604957;237;26556;-64
2022/04/06 10:37:02;;;;;;;4.25;2.60;;;13.10;92.40;;;;;;604951;237;26861;-64
2022/04/06 10:39:30;;;;;;;6.78;3.50;;;13.10;92.30;;;;;;604683;238;26579;-64
2022/04/06 10:42:09;;;;;;;6.80;3.33;;;13.00;92.70;;;;;;604576;237;26578;-64
2022/04/06 10:44:37;;;;;;;2.35;2.17;;;13.00;92.50;;;;;;604591;238;26582;-65
2022/04/06 10:47:06;;;;;;;7.47;3.78;;;13.30;92.30;;;;;;604488;237;26924;-65
2022/04/06 10:49:33;;;;;;;3.40;3.00;;;13.50;92.10;;;;;;604550;238;26820;-63
2022/04/06 10:52:00;;;;;;;2.42;2.22;;;13.70;91.30;;;;;;604705;238;26575;-64
2022/04/06 10:54:38;;;;;;;5.03;2.50;;;14.00;91.20;;;;;;602845;238;26837;-64
2022/04/06 10:57:05;;;;;;;8.02;3.30;;;14.00;90.80;;;;;;604780;236;26617;-64
2022/04/06 10:59:33;;;;;;;4.85;3.15;;;14.20;89.90;;;;;;606120;236;26607;-65
2022/04/06 11:02:14;;;;;;;3.40;2.65;;;13.70;90.10;;;;;;605671;237;26663;-64
2022/04/06 11:04:41;;;;;;;7.97;3.42;;;13.70;90.10;;;;;;605117;236;26737;-64
2022/04/06 11:07:08;;;;;;;5.05;3.00;;;13.60;89.60;;;;;;605301;236;26624;-64
2022/04/06 11:12:11;;;;;;;6.43;3.22;;;13.10;88.90;;;;;;605185;238;26643;-64
2022/04/06 11:14:38;;;;;;;6.62;3.58;;;13.10;88.90;;;;;;605180;238;26647;-63
2022/04/06 11:17:37;;;;;;;5.80;3.30;;;13.10;89.50;;;;;;604928;237;26608;-64
2022/04/06 11:20:04;;;;;;;4.57;2.90;;;13.10;89.50;;;;;;604838;236;26879;-63
2022/04/06 11:22:32;;;;;;;5.47;2.95;;;13.00;90.00;;;;;;605247;237;26615;-65
2022/04/06 11:24:59;;;;;;;2.80;2.60;;;12.90;90.10;;;;;;605218;238;26799;-65
2022/04/06 11:27:27;;;;;;;3.92;2.72;;;12.80;90.30;;;;;;605259;233;26637;-65
2022/04/06 11:30:00;;;;;;;8.15;3.53;;;12.70;90.90;;;;;;605231;237;26806;-65
2022/04/06 11:32:27;;;;;;;4.70;3.20;;;12.70;90.60;;;;;;605282;237;26607;-64
2022/04/06 11:34:59;;;;;;;5.37;2.90;;;12.60;90.90;;;;;;604997;238;26614;-64
2022/04/06 11:37:25;;;;;;;5.12;3.10;;;12.50;91.10;;;;;;604973;238;26854;-64
2022/04/06 11:39:59;;;;;;;8.63;3.55;;;12.40;91.20;;;;;;604978;237;26558;-64
2022/04/06 11:42:26;;;;;;;3.87;3.12;;;12.40;91.40;;;;;;604981;237;26550;-65
2022/04/06 11:44:53;;;;;;;8.18;2.67;;;12.40;91.60;;;;;;604956;237;26801;-66
2022/04/06 11:47:35;;;;;;;5.78;3.10;;;12.30;91.90;;;;;;604986;234;26578;-65
2022/04/06 11:50:03;;;;;;;2.55;2.35;;;12.30;91.90;;;;;;604961;238;26769;-65
2022/04/06 11:52:30;;;;;;;3.80;2.67;;;12.20;92.40;;;;;;604942;236;26556;-65
2022/04/06 11:54:57;;;;;;;5.00;3.17;;;12.20;92.20;;;;;;604969;237;27023;-65
2022/04/06 11:57:34;;;;;;;2.87;2.40;;;12.10;92.30;;;;;;604969;237;26595;-65
2022/04/06 12:00:03;;;;;;;5.40;3.28;;;12.10;92.30;;;;;;604555;238;26570;-66
2022/04/06 12:02:28;;;;;;;5.78;3.05;;;12.00;92.20;;;;;;604500;238;26611;-65
2022/04/06 12:05:01;;;;;;;4.43;3.05;;;12.00;92.00;;;;;;604602;237;26551;-65
2022/04/06 12:07:28;;;;;;;3.40;3.10;;;12.00;92.30;;;;;;604037;232;26950;-68
2022/04/06 12:09:55;;;;;;;4.40;3.17;;;11.90;91.90;;;;;;605745;235;26599;-69
2022/04/06 12:12:23;;;;;;;3.37;2.90;;;11.90;91.80;;;;;;605921;232;26864;-70
2022/04/06 12:14:50;;;;;;;3.20;2.90;;;12.00;91.70;;;;;;605485;236;26583;-70
2022/04/06 12:17:17;;;;;;;2.85;2.40;;;11.90;91.70;;;;;;605539;236;26978;-70
2022/04/06 12:19:44;;;;;;;3.10;2.90;;;12.00;91.80;;;;;;605296;236;26649;-64
2022/04/06 12:22:11;;;;;;;3.78;3.12;;;11.90;91.70;;;;;;605261;238;26857;-65
2022/04/06 12:24:39;;;;;;;3.67;2.83;;;12.00;91.70;;;;;;605208;237;26656;-65
2022/04/06 12:27:07;;;;;;;3.05;2.72;;;12.00;91.60;;;;;;605115;237;26870;-64
2022/04/06 12:29:36;;;;;;;3.22;2.92;;;12.00;91.70;;;;;;604963;238;26575;-64
2022/04/06 12:32:03;;;;;;;6.68;2.80;;;12.00;91.80;;;;;;604875;234;26816;-64
2022/04/06 12:34:30;;;;;;;5.30;3.25;;;12.00;91.70;;;;;;604902;237;26590;-65
2022/04/06 12:36:58;;;;;;;5.07;2.87;;;12.00;92.10;;;;;;604908;237;26618;-64
2022/04/06 12:39:26;;;;;;;2.75;2.55;;;12.10;91.90;;;;;;604888;232;26624;-64
2022/04/06 12:41:56;;;;;;;3.20;2.62;;;12.00;91.80;;;;;;604830;237;26587;-64
2022/04/06 12:44:21;;;;;;;3.92;2.67;;;12.00;91.80;;;;;;604717;236;26555;-65
2022/04/06 12:46:49;;;;;;;3.12;2.78;;;12.00;91.80;;;;;;604637;237;26609;-64
2022/04/06 12:49:24;;;;;;;5.32;3.60;;;11.90;91.80;;;;;;604653;237;26903;-64
2022/04/06 12:52:16;;;;;;;5.32;3.25;;;12.00;91.60;;;;;;604640;237;26556;-65
2022/04/06 12:54:43;;;;;;;3.03;2.72;;;11.90;91.20;;;;;;602777;238;27233;-65
2022/04/06 12:57:13;;;;;;;5.28;2.60;;;12.10;90.80;;;;;;604632;237;26613;-65
2022/04/06 12:59:41;;;;;;;4.45;3.25;;;12.40;90.60;;;;;;604492;238;26579;-65
2022/04/06 13:02:17;;;;;;;5.05;3.33;;;12.80;90.10;;;;;;604858;238;26566;-65
2022/04/06 13:04:45;;;;;;;3.00;2.70;;;13.10;88.20;;;;;;604947;238;26554;-64
2022/04/06 13:07:13;;;;;;;4.62;2.65;;;13.60;87.10;;;;;;604966;237;26589;-64
2022/04/06 13:09:48;;;;;;;4.45;3.10;;;13.60;87.10;;;;;;604969;237;26559;-63